Time;durP1;ratioP1;P1;durP2;ratioP2;P2;SDS_P1;SDS_P2;PMS_P1;PMS_P2;Temp;Humidity;BMP_temperature;BMP_pressure;BME280_temperature;BME280_humidity;BME280_pressure;Samples;Min_cycle;Max_cycle;Signal;HPM_P1;HPM_P2
2022/08/23 00:01:46;;;;;;;;;1.67;1.67;;;;;23.60;54.63;100972.19;5016942;28;45288;-63
2022/08/23 00:04:16;;;;;;;;;3.00;3.00;;;;;23.48;54.87;100954.97;5014978;28;46220;-64
2022/08/23 00:06:43;;;;;;;;;0.00;0.00;;;;;23.55;54.99;100970.13;5016719;28;45430;-64
2022/08/23 00:09:09;;;;;;;;;0.67;0.67;;;;;23.52;54.70;100958.91;5016640;28;45298;-65
2022/08/23 00:11:44;;;;;;;;;1.00;1.00;;;;;23.50;54.53;100963.72;5015375;28;45305;-64
2022/08/23 00:14:19;;;;;;;;;0.00;0.00;;;;;23.50;55.17;100969.16;5016498;28;46315;-64
2022/08/23 00:16:45;;;;;;;;;0.00;0.00;;;;;23.27;54.60;100924.50;5016489;28;45414;-64
2022/08/23 00:19:13;;;;;;;;;0.67;0.67;;;;;23.46;54.71;100948.94;5020188;28;45304;-64
2022/08/23 00:21:39;;;;;;;;;0.00;0.00;;;;;23.48;55.29;100955.81;5020121;28;45598;-65
2022/08/23 00:24:06;;;;;;;;;0.33;0.33;;;;;22.97;55.17;100888.25;5019598;28;47764;-64
2022/08/23 00:26:48;;;;;;;;;0.33;0.33;;;;;23.44;54.89;100949.19;5019651;28;45329;-63
2022/08/23 00:29:14;;;;;;;;;3.33;2.33;;;;;23.48;55.40;100957.69;5019889;28;45372;-64
2022/08/23 00:31:39;;;;;;;;;0.00;0.00;;;;;23.48;55.35;100955.81;5020146;28;45298;-65
2022/08/23 00:34:05;;;;;;;;;1.00;1.00;;;;;23.49;55.15;100951.22;5019499;28;55088;-64
2022/08/23 00:36:31;;;;;;;;;1.00;1.00;;;;;23.52;54.50;100950.75;5019774;28;45501;-64
2022/08/23 00:38:56;;;;;;;;;1.00;1.00;;;;;22.94;55.50;100856.16;5019969;28;45631;-64
2022/08/23 00:41:22;;;;;;;;;2.00;0.00;;;;;23.52;55.22;100950.75;5020031;28;45533;-64
2022/08/23 00:49:21;;;;;;;;;3.00;0.67;;;;;23.46;55.14;100935.38;5019269;28;45419;-64
2022/08/23 00:51:56;;;;;;;;;1.00;1.00;;;;;23.11;55.31;100884.38;5018196;28;45461;-63
2022/08/23 00:54:26;;;;;;;;;1.00;0.00;;;;;23.52;55.42;100950.75;5019304;28;45880;-63
2022/08/23 00:56:53;;;;;;;;;0.00;0.00;;;;;22.88;55.24;100851.63;5019209;28;45329;-64
2022/08/23 00:59:19;;;;;;;;;3.67;2.00;;;;;23.41;54.98;100937.91;5019244;28;45448;-63
2022/08/23 01:01:45;;;;;;;;;2.00;1.00;;;;;23.54;55.34;100951.38;5018201;28;45541;-63
2022/08/23 01:04:11;;;;;;;;;1.00;1.00;;;;;23.52;55.12;100954.31;5018974;28;46657;-65
2022/08/23 01:06:50;;;;;;;;;0.00;0.00;;;;;23.51;55.04;100959.97;5019105;28;45233;-65
2022/08/23 01:09:18;;;;;;;;;0.33;0.33;;;;;23.04;55.21;100878.19;5019396;28;45470;-64
2022/08/23 01:12:04;;;;;;;;;0.67;0.67;;;;;23.37;55.35;100943.78;5034597;28;45293;-63
2022/08/23 01:14:58;;;;;;;;;1.00;1.00;;;;;23.48;55.04;100963.97;5019029;28;46721;-64
2022/08/23 01:17:29;;;;;;;;;2.00;0.67;;;;;23.47;55.28;100964.19;5019056;28;45544;-65
2022/08/23 01:20:09;;;;;;;;;0.33;0.33;;;;;23.43;55.43;100957.53;5017839;28;45388;-64
2022/08/23 01:23:00;;;;;;;;;0.00;0.00;;;;;22.95;55.59;100885.75;5034340;28;45490;-65
2022/08/23 01:25:29;;;;;;;;;0.00;0.00;;;;;23.41;55.93;100957.75;5018679;28;45328;-64
2022/08/23 01:27:55;;;;;;;;;0.33;0.33;;;;;23.04;55.58;100899.88;5018567;28;45456;-64
2022/08/23 01:30:24;;;;;;;;;2.00;0.75;;;;;23.16;55.44;100917.06;5018974;28;45308;-64
2022/08/23 01:32:55;;;;;;;;;0.00;0.00;;;;;23.34;55.76;100954.28;5019126;28;45276;-65
2022/08/23 01:35:29;;;;;;;;;1.00;1.00;;;;;23.30;55.90;100943.03;5018538;28;45380;-64
2022/08/23 01:37:55;;;;;;;;;0.00;0.00;;;;;23.29;55.63;100941.38;5018677;28;45482;-64
2022/08/23 01:40:21;;;;;;;;;1.00;1.00;;;;;23.36;55.72;100961.13;5018906;28;45398;-64
2022/08/23 01:42:48;;;;;;;;;1.67;1.67;;;;;23.40;55.83;100963.41;5018780;28;45225;-64
2022/08/23 01:45:13;;;;;;;;;2.33;2.33;;;;;23.35;55.70;100951.34;5018277;28;48072;-65
2022/08/23 01:47:39;;;;;;;;;0.00;0.00;;;;;23.42;55.63;100969.44;5018665;28;45281;-64
2022/08/23 01:50:06;;;;;;;;;0.00;0.00;;;;;23.40;55.97;100957.97;5018482;28;45310;-64
2022/08/23 01:52:33;;;;;;;;;0.00;0.00;;;;;23.22;55.78;100943.31;5018867;28;45509;-64
2022/08/23 01:55:00;;;;;;;;;2.00;2.00;;;;;23.35;55.98;100973.03;5018259;28;45696;-64
2022/08/23 01:57:26;;;;;;;;;0.67;0.67;;;;;23.12;56.16;100929.44;5018337;28;45289;-64
2022/08/23 01:59:51;;;;;;;;;1.00;1.00;;;;;23.29;56.26;100957.66;5018387;28;45558;-64
2022/08/23 02:02:17;;;;;;;;;1.00;1.00;;;;;23.19;56.20;100951.06;5033991;28;45475;-64
2022/08/23 02:04:42;;;;;;;;;1.00;1.00;;;;;23.15;56.12;100937.13;5018220;28;45638;-63
2022/08/23 02:07:07;;;;;;;;;1.00;1.00;;;;;23.25;56.44;100952.91;5018188;28;45515;-64
2022/08/23 02:09:33;;;;;;;;;1.00;1.00;;;;;23.11;56.34;100952.19;5018508;28;45218;-63
2022/08/23 02:11:58;;;;;;;;;1.33;1.33;;;;;23.19;56.56;100978.19;5018519;28;45451;-64
2022/08/23 02:14:23;;;;;;;;;3.00;1.67;;;;;23.18;56.60;100969.22;5018109;28;46785;-64
2022/08/23 02:16:51;;;;;;;;;1.33;1.00;;;;;23.15;56.53;100963.41;5018135;28;45292;-63
2022/08/23 02:19:17;;;;;;;;;2.00;2.00;;;;;22.65;56.49;100880.16;5018067;28;45393;-64
2022/08/23 02:21:43;;;;;;;;;1.00;1.00;;;;;23.06;56.85;100952.03;5018475;28;45500;-63
2022/08/23 02:24:13;;;;;;;;;1.00;1.00;;;;;23.19;56.59;100973.59;5016251;28;46472;-64
2022/08/23 02:26:43;;;;;;;;;1.00;1.00;;;;;23.18;56.60;100971.94;5017981;28;45538;-64
2022/08/23 02:29:08;;;;;;;;;1.67;1.67;;;;;23.13;56.69;100974.47;5017986;28;45367;-64
2022/08/23 02:31:34;;;;;;;;;1.00;1.00;;;;;23.15;56.72;100985.94;5018013;28;45211;-65
2022/08/23 02:34:00;;;;;;;;;1.00;1.00;;;;;23.14;56.86;100980.75;5017670;28;46160;-64
2022/08/23 02:36:26;;;;;;;;;2.33;2.33;;;;;22.50;56.64;100879.63;5017661;28;45331;-64
2022/08/23 02:38:53;;;;;;;;;2.00;2.00;;;;;23.14;56.61;100989.72;5017945;28;45534;-64
2022/08/23 02:41:18;;;;;;;;;2.00;2.00;;;;;23.07;56.93;100964.53;5015676;28;45223;-64
2022/08/23 02:43:44;;;;;;;;;2.00;0.33;;;;;23.03;56.80;100957.91;5032685;28;46989;-63
2022/08/23 02:46:09;;;;;;;;;1.00;1.00;;;;;23.11;57.45;100982.00;5017498;28;45443;-64
2022/08/23 02:48:35;;;;;;;;;1.67;1.67;;;;;21.86;57.07;100767.72;5017704;28;45717;-64
2022/08/23 02:51:03;;;;;;;;;1.00;1.00;;;;;22.94;57.31;100953.78;5033148;28;45249;-63
2022/08/23 02:53:30;;;;;;;;;2.67;1.00;;;;;23.05;57.54;100972.88;5017363;28;46532;-64
2022/08/23 02:55:56;;;;;;;;;1.00;1.00;;;;;23.09;56.93;100973.28;5016017;28;45507;-64
2022/08/23 02:58:22;;;;;;;;;1.00;1.00;;;;;23.02;57.22;100951.59;5017698;28;45382;-64
2022/08/23 03:00:48;;;;;;;;;0.00;0.00;;;;;23.01;57.13;100955.38;5017672;28;45439;-64
2022/08/23 03:03:13;;;;;;;;;1.00;1.00;;;;;23.13;57.51;100968.22;5015871;28;47683;-64
2022/08/23 03:05:39;;;;;;;;;0.00;0.00;;;;;23.15;57.10;100977.81;5017127;28;45419;-64
2022/08/23 03:08:04;;;;;;;;;1.00;0.00;;;;;23.18;57.01;100971.09;5017441;28;45408;-64
2022/08/23 03:10:30;;;;;;;;;1.67;1.67;;;;;23.19;57.40;100984.44;5017410;28;45190;-63
2022/08/23 03:12:55;;;;;;;;;1.00;1.00;;;;;22.70;56.93;100887.63;5017084;28;46949;-64
2022/08/23 03:15:21;;;;;;;;;2.00;1.00;;;;;23.10;57.33;100965.97;5017277;28;45263;-64
2022/08/23 03:17:47;;;;;;;;;4.00;4.00;;;;;23.22;57.29;100989.41;5017318;28;45175;-63
2022/08/23 03:20:13;;;;;;;;;2.00;2.00;;;;;23.16;56.92;100975.91;5017421;28;45506;-64
2022/08/23 03:22:39;;;;;;;;;1.00;1.00;;;;;23.14;57.01;100970.72;5016695;28;46157;-63
2022/08/23 03:25:05;;;;;;;;;1.00;1.00;;;;;23.28;56.96;100993.16;5016751;28;45431;-64
2022/08/23 03:27:31;;;;;;;;;3.00;2.00;;;;;23.27;57.21;100984.19;5017075;28;45333;-62
2022/08/23 03:29:57;;;;;;;;;2.33;1.00;;;;;23.15;56.82;100961.53;5017191;28;45515;-63
2022/08/23 03:32:22;;;;;;;;;0.00;0.00;;;;;23.26;56.98;100985.22;5016893;28;45983;-65
2022/08/23 03:34:47;;;;;;;;;1.67;1.00;;;;;23.19;56.98;100975.47;5016865;28;45320;-64
2022/08/23 03:37:13;;;;;;;;;1.00;1.00;;;;;23.27;56.94;100997.75;5016922;28;45306;-64
2022/08/23 03:39:39;;;;;;;;;1.00;1.00;;;;;22.74;57.18;100902.38;5017097;28;45607;-63
2022/08/23 03:42:05;;;;;;;;;1.00;1.00;;;;;23.23;56.89;100985.69;5016733;28;46703;-63
2022/08/23 03:44:31;;;;;;;;;1.00;1.00;;;;;23.20;57.45;100991.53;5016821;28;45476;-63
2022/08/23 03:46:57;;;;;;;;;1.00;1.00;;;;;23.12;57.37;100986.38;5016912;28;45469;-64
2022/08/23 03:49:22;;;;;;;;;1.00;1.00;;;;;23.18;57.67;100984.66;5016650;28;45469;-64
2022/08/23 03:51:47;;;;;;;;;1.67;1.67;;;;;23.15;57.40;100991.38;5018230;28;45752;-63
2022/08/23 03:54:13;;;;;;;;;1.00;1.00;;;;;23.03;57.58;100979.59;5020259;28;45308;-64
2022/08/23 03:56:51;;;;;;;;;1.00;1.00;;;;;23.08;57.40;100998.72;5020278;28;45663;-62
2022/08/23 03:59:16;;;;;;;;;2.00;2.00;;;;;23.11;57.86;101001.00;5020141;28;45436;-63
2022/08/23 04:01:42;;;;;;;;;2.67;1.67;;;;;23.11;57.85;101011.00;5018386;28;47841;-64
2022/08/23 04:04:08;;;;;;;;;2.00;0.33;;;;;23.09;58.06;101005.81;5019772;28;45370;-62
2022/08/23 04:06:33;;;;;;;;;2.33;2.33;;;;;22.95;57.86;100977.13;5019967;28;45439;-63
2022/08/23 04:08:59;;;;;;;;;3.00;3.00;;;;;23.13;58.21;101012.47;5020494;28;45419;-63
2022/08/23 04:11:24;;;;;;;;;1.00;1.00;;;;;22.96;57.58;100987.75;5019781;28;47179;-63
2022/08/23 04:13:50;;;;;;;;;2.00;2.00;;;;;23.10;58.21;101012.06;5019923;28;45420;-64
2022/08/23 04:16:17;;;;;;;;;1.00;1.00;;;;;22.03;57.58;100854.69;5019822;28;45562;-65
2022/08/23 04:18:43;;;;;;;;;2.33;1.67;;;;;23.13;57.85;101015.16;5019602;28;45371;-63
2022/08/23 04:21:15;;;;;;;;;2.00;2.00;;;;;23.16;58.08;101016.59;5019600;28;45792;-64
2022/08/23 04:23:41;;;;;;;;;1.00;1.00;;;;;23.23;57.58;101022.84;5020015;28;45448;-64
2022/08/23 04:26:07;;;;;;;;;2.00;2.00;;;;;23.25;57.83;101040.53;5019384;28;45245;-64
2022/08/23 04:28:33;;;;;;;;;0.33;0.33;;;;;23.23;57.69;101026.38;5019905;28;45444;-64
2022/08/23 04:30:59;;;;;;;;;3.00;1.33;;;;;23.27;57.67;101026.75;5019328;28;46446;-65
2022/08/23 04:33:33;;;;;;;;;3.00;2.00;;;;;23.16;57.48;101012.00;5019607;28;45308;-63
2022/08/23 04:35:59;;;;;;;;;2.00;2.00;;;;;23.31;57.77;101031.50;5019697;28;45242;-63
2022/08/23 04:38:26;;;;;;;;;2.00;1.67;;;;;23.31;57.37;101042.38;5019606;28;45218;-64
2022/08/23 04:43:36;;;;;;;;;1.00;1.00;;;;;23.30;57.74;101040.72;5019136;28;45483;-63
2022/08/23 04:46:02;;;;;;;;;1.00;1.00;;;;;23.24;57.41;101029.91;5019487;28;45289;-64
2022/08/23 04:48:27;;;;;;;;;2.00;2.00;;;;;23.29;57.54;101044.47;5019596;28;45590;-63
2022/08/23 04:50:52;;;;;;;;;3.33;2.67;;;;;23.00;57.53;101013.38;5018977;28;53175;-64
2022/08/23 04:53:18;;;;;;;;;2.00;2.00;;;;;23.03;57.37;101007.53;5019046;28;45309;-64
2022/08/23 04:55:43;;;;;;;;;3.00;2.00;;;;;23.20;57.51;101029.50;5019556;28;45238;-65
2022/08/23 04:58:09;;;;;;;;;1.67;1.67;;;;;23.26;57.67;101055.78;5019590;28;45618;-64
2022/08/23 05:00:34;;;;;;;;;2.00;1.00;;;;;23.25;57.88;101040.53;5019392;28;45692;-66
2022/08/23 05:02:59;;;;;;;;;2.33;1.67;;;;;23.24;58.15;101048.91;5018145;28;45487;-64
2022/08/23 05:05:26;;;;;;;;;2.33;1.33;;;;;23.23;57.71;101055.38;5019258;28;45217;-65
2022/08/23 05:07:52;;;;;;;;;2.33;1.33;;;;;23.11;57.89;101040.84;5019426;28;45489;-63
2022/08/23 05:10:18;;;;;;;;;2.00;2.00;;;;;23.05;57.95;101037.97;5019168;28;46160;-64
2022/08/23 05:12:43;;;;;;;;;2.00;2.00;;;;;23.15;57.40;101064.59;5018878;28;45416;-63
2022/08/23 05:15:09;;;;;;;;;2.00;2.00;;;;;23.17;58.02;101062.50;5019399;28;45482;-65
2022/08/23 05:17:35;;;;;;;;;1.67;1.67;;;;;23.17;58.02;101061.66;5019306;28;45301;-65
2022/08/23 05:20:01;;;;;;;;;2.00;2.00;;;;;23.13;58.07;101055.84;5019230;28;46606;-65
2022/08/23 05:22:27;;;;;;;;;1.00;1.00;;;;;23.05;58.31;101042.56;5019081;28;45383;-64
2022/08/23 05:24:53;;;;;;;;;2.00;2.00;;;;;23.14;58.24;101056.69;5019026;28;45506;-66
2022/08/23 05:27:18;;;;;;;;;2.00;2.00;;;;;23.09;58.20;101054.63;5019105;28;45439;-64
2022/08/23 05:29:43;;;;;;;;;5.33;3.67;;;;;22.98;58.71;101045.31;5018809;28;45593;-64
2022/08/23 05:32:09;;;;;;;;;6.00;3.00;;;;;23.05;58.47;101056.13;5018613;28;45396;-65
2022/08/23 05:34:36;;;;;;;;;3.00;3.00;;;;;23.05;58.57;101075.09;5019227;28;45431;-64
2022/08/23 05:37:01;;;;;;;;;1.33;1.33;;;;;22.74;59.06;101008.94;5019221;28;45616;-64
2022/08/23 05:39:26;;;;;;;;;3.00;3.00;;;;;23.02;59.26;101061.97;5033622;28;47329;-65
2022/08/23 05:41:52;;;;;;;;;4.67;3.00;;;;;23.01;59.31;101079.28;5018581;28;45325;-65
2022/08/23 05:44:17;;;;;;;;;5.67;4.00;;;;;23.03;59.00;101077.22;5018689;28;45277;-64
2022/08/23 05:46:44;;;;;;;;;3.67;3.67;;;;;23.07;59.46;101078.44;5019000;28;45379;-65
2022/08/23 05:49:09;;;;;;;;;3.00;3.00;;;;;22.92;59.13;101039.94;5018315;28;45740;-64
2022/08/23 05:51:34;;;;;;;;;6.33;5.00;;;;;22.95;58.83;101031.34;5018392;28;45371;-64
2022/08/23 05:54:06;;;;;;;;;5.00;5.00;;;;;23.26;58.90;101060.38;5033757;28;45330;-64
2022/08/23 05:56:34;;;;;;;;;5.33;5.33;;;;;23.25;58.58;101051.41;5018728;28;45171;-63
2022/08/23 05:59:04;;;;;;;;;5.00;3.33;;;;;23.40;58.24;101056.47;5018051;28;45699;-64
2022/08/23 06:01:30;;;;;;;;;4.00;3.00;;;;;23.43;58.04;101063.38;5018421;28;45409;-63
2022/08/23 06:04:04;;;;;;;;;4.00;4.00;;;;;23.44;57.91;101056.91;5019110;28;45439;-64
2022/08/23 06:06:31;;;;;;;;;4.67;4.67;;;;;23.34;58.10;101049.22;5037430;28;45524;-64
2022/08/23 06:08:56;;;;;;;;;7.00;4.00;;;;;22.86;57.71;100970.31;5037580;28;46947;-64
2022/08/23 06:11:24;;;;;;;;;4.67;4.67;;;;;23.48;57.72;101069.78;5036134;28;45228;-64
2022/08/23 06:13:55;;;;;;;;;5.00;4.67;;;;;23.45;58.00;101074.84;5037754;28;45482;-64
2022/08/23 06:16:27;;;;;;;;;4.00;3.00;;;;;23.50;57.83;101080.44;5035763;28;45414;-64
2022/08/23 06:18:54;;;;;;;;;4.00;3.00;;;;;23.37;57.79;101055.03;5037737;28;45595;-64
2022/08/23 06:21:20;;;;;;;;;4.00;2.33;;;;;23.42;58.40;101086.94;5026773;28;45637;-64
2022/08/23 06:23:48;;;;;;;;;9.33;9.33;;;;;23.38;58.23;101059.41;5035940;28;45449;-64
2022/08/23 06:26:17;;;;;;;;;3.00;3.00;;;;;23.57;57.49;101073.09;5037610;28;45323;-64
2022/08/23 06:28:45;;;;;;;;;4.33;4.33;;;;;23.55;58.17;101080.59;5037589;28;46723;-64
2022/08/23 06:31:10;;;;;;;;;7.00;5.67;;;;;23.50;57.62;101061.44;5037439;28;45464;-64
2022/08/23 06:33:36;;;;;;;;;4.33;4.33;;;;;23.86;57.39;101088.72;5037514;28;45419;-63
2022/08/23 06:36:12;;;;;;;;;3.33;3.33;;;;;23.61;56.28;101009.97;5038029;28;45320;-64
2022/08/23 06:38:39;;;;;;;;;3.00;3.00;;;;;24.01;55.78;101042.16;5036954;28;45761;-64
2022/08/23 06:41:09;;;;;;;;;3.00;3.00;;;;;24.52;55.41;101087.19;5037481;28;45454;-64
2022/08/23 06:43:35;;;;;;;;;5.00;3.00;;;;;24.65;54.92;101075.34;5035773;28;45416;-66
2022/08/23 06:46:14;;;;;;;;;5.67;3.33;;;;;25.00;54.40;101100.81;5036061;28;45275;-64
2022/08/23 06:48:42;;;;;;;;;5.00;4.33;;;;;25.14;53.80;101096.84;5034981;28;47881;-65
2022/08/23 06:51:37;;;;;;;;;4.00;3.00;;;;;25.28;53.17;101094.78;5036891;28;45425;-64
2022/08/23 06:54:08;;;;;;;;;4.33;4.33;;;;;25.88;52.32;101096.56;5034711;28;45606;-65
2022/08/23 06:56:34;;;;;;;;;3.00;3.00;;;;;26.49;50.60;101098.78;5017217;28;45501;-65
2022/08/23 06:59:04;;;;;;;;;4.00;4.00;;;;;27.15;49.07;101082.91;5017202;28;47989;-65
2022/08/23 07:01:36;;;;;;;;;4.00;4.00;;;;;27.71;47.63;101029.25;5040910;28;45534;-65
2022/08/23 07:04:03;;;;;;;;;4.00;4.00;;;;;28.62;45.65;101100.75;5017546;28;45412;-65
2022/08/23 07:06:29;;;;;;;;;4.00;2.67;;;;;29.02;44.25;101105.91;5017595;28;45368;-64
2022/08/23 07:08:55;;;;;;;;;5.00;5.00;;;;;29.39;44.22;101095.88;5016931;28;47436;-64
2022/08/23 07:11:22;;;;;;;;;3.67;2.33;;;;;29.88;42.68;101108.63;5017126;28;45381;-64
2022/08/23 07:13:47;;;;;;;;;4.33;4.33;;;;;30.50;41.88;101103.25;5017270;28;45163;-67
2022/08/23 07:16:16;;;;;;;;;4.33;4.00;;;;;31.08;40.54;101101.28;5017186;28;45534;-65
2022/08/23 07:18:43;;;;;;;;;5.00;3.00;;;;;31.55;39.06;101094.75;5017027;28;46670;-65
2022/08/23 07:21:09;;;;;;;;;4.00;4.00;;;;;32.31;37.96;101111.19;5017197;28;45424;-65
2022/08/23 07:23:35;;;;;;;;;5.33;4.00;;;;;33.00;36.29;101103.16;5017061;28;45489;-64
2022/08/23 07:26:09;;;;;;;;;3.00;3.00;;;;;33.80;35.52;101112.75;5015412;28;45535;-64
2022/08/23 07:28:34;;;;;;;;;4.00;4.00;;;;;33.96;34.39;101105.19;5016482;28;46583;-65
2022/08/23 07:31:13;;;;;;;;;3.00;3.00;;;;;33.92;34.64;101111.59;5017050;28;45516;-66
2022/08/23 07:33:40;;;;;;;;;3.00;3.00;;;;;34.00;34.63;101113.72;5032304;28;45372;-64
2022/08/23 07:36:07;;;;;;;;;4.00;3.33;;;;;33.60;34.36;101107.44;5016907;28;45369;-64
2022/08/23 07:38:34;;;;;;;;;4.00;4.00;;;;;33.37;35.12;101114.50;5015118;28;48116;-65
2022/08/23 07:41:02;;;;;;;;;3.67;3.67;;;;;33.16;35.67;101122.06;5016742;28;45318;-63
2022/08/23 07:43:28;;;;;;;;;3.33;3.33;;;;;32.98;35.26;101112.53;5016696;28;45312;-67
2022/08/23 07:45:53;;;;;;;;;5.33;5.00;;;;;32.82;36.13;101129.44;5016817;28;45391;-64
2022/08/23 07:48:19;;;;;;;;;9.00;9.00;;;;;32.56;36.43;101117.69;5014898;28;46549;-64
2022/08/23 07:50:57;;;;;;;;;4.00;4.00;;;;;32.23;36.95;101125.47;5016475;28;45416;-63
2022/08/23 07:53:23;;;;;;;;;6.00;6.00;;;;;31.84;37.11;101132.69;5016639;28;45471;-64
2022/08/23 07:55:49;;;;;;;;;7.67;5.00;;;;;31.28;37.86;101116.16;5018118;28;45617;-65
2022/08/23 07:58:15;;;;;;;;;6.67;5.67;;;;;30.85;39.06;101123.75;5028248;28;46060;-64
2022/08/23 08:00:40;;;;;;;;;6.00;6.00;;;;;30.74;39.38;101135.75;5029584;28;45337;-63
2022/08/23 08:03:06;;;;;;;;;6.67;5.67;;;;;30.64;39.78;101133.00;5024794;28;45424;-64
2022/08/23 08:05:32;;;;;;;;;4.00;4.00;;;;;30.50;39.87;101135.34;5035351;28;45245;-63
2022/08/23 08:07:57;;;;;;;;;11.00;8.67;;;;;30.27;40.35;101133.88;5036137;28;46567;-63
2022/08/23 08:10:23;;;;;;;;;7.00;6.00;;;;;30.04;41.07;101135.09;5035657;28;45358;-63
2022/08/23 08:12:49;;;;;;;;;5.33;5.33;;;;;29.85;41.43;101137.41;5036202;28;45340;-64
2022/08/23 08:15:16;;;;;;;;;5.67;5.67;;;;;29.64;42.00;101143.81;5018337;28;45464;-63
2022/08/23 08:17:41;;;;;;;;;10.33;7.33;;;;;29.74;41.30;101129.34;5015861;28;47718;-63
2022/08/23 08:20:07;;;;;;;;;7.67;7.00;;;;;29.45;41.31;101065.81;5016954;28;45473;-64
2022/08/23 08:22:33;;;;;;;;;8.00;7.00;;;;;29.88;41.59;101147.84;5021501;28;45476;-65
2022/08/23 08:24:58;;;;;;;;;7.00;7.00;;;;;29.86;41.27;101133.56;5033611;28;45558;-63
2022/08/23 08:27:23;;;;;;;;;7.00;6.00;;;;;29.36;41.45;101060.78;5027802;28;46535;-62
2022/08/23 08:29:48;;;;;;;;;6.00;6.00;;;;;29.76;41.38;101136.22;5036211;28;45339;-63
2022/08/23 08:32:14;;;;;;;;;8.00;6.33;;;;;29.67;41.58;101140.53;5036147;28;45237;-63
2022/08/23 08:34:40;;;;;;;;;8.00;6.67;;;;;29.55;42.09;101142.63;5036208;28;45407;-62
2022/08/23 08:37:06;;;;;;;;;8.00;8.00;;;;;29.37;42.20;101130.91;5038861;28;48724;-63
2022/08/23 08:39:31;;;;;;;;;8.00;7.00;;;;;29.10;42.35;101083.56;5017243;28;45275;-63
2022/08/23 08:42:24;;;;;;;;;7.00;7.00;;;;;29.59;42.58;101143.75;5019913;28;45489;-64
2022/08/23 08:45:10;;;;;;;;;7.00;7.00;;;;;29.64;42.48;101139.16;5019873;28;45316;-64
2022/08/23 08:47:47;;;;;;;;;7.33;5.33;;;;;29.73;41.97;101144.13;5030025;28;46461;-64
2022/08/23 08:50:25;;;;;;;;;7.00;7.00;;;;;29.70;41.91;101140.00;5037174;28;45398;-64
2022/08/23 08:52:59;;;;;;;;;6.67;6.67;;;;;29.41;42.32;101083.81;5038943;28;45334;-63
2022/08/23 08:55:29;;;;;;;;;9.00;6.00;;;;;29.76;42.56;101151.84;5037907;28;45713;-63
2022/08/23 08:57:55;;;;;;;;;6.00;6.00;;;;;29.94;41.88;101151.44;5023195;28;46749;-63
2022/08/23 09:00:26;;;;;;;;;5.67;5.00;;;;;29.98;41.91;101149.81;5018961;28;45182;-64
2022/08/23 09:02:52;;;;;;;;;8.33;6.00;;;;;30.07;41.57;101155.69;5019329;28;45359;-64
2022/08/23 09:05:25;;;;;;;;;7.33;6.00;;;;;30.01;41.32;101162.16;5019145;28;45282;-64
2022/08/23 09:08:06;;;;;;;;;6.00;6.00;;;;;29.97;41.89;101162.69;5019134;28;45612;-62
2022/08/23 09:10:50;;;;;;;;;4.33;4.00;;;;;30.20;41.50;101160.69;5031754;28;45486;-63
2022/08/23 09:13:31;;;;;;;;;5.00;5.00;;;;;30.40;41.05;101143.53;5021034;28;46715;-64
2022/08/23 09:15:56;;;;;;;;;7.67;7.33;;;;;31.02;40.15;101160.00;5033863;28;45638;-63
2022/08/23 09:18:23;;;;;;;;;7.00;7.00;;;;;31.15;39.18;101139.44;5031027;28;45497;-65
2022/08/23 09:20:52;;;;;;;;;5.00;5.00;;;;;31.33;39.33;101157.38;5031269;28;45920;-63
2022/08/23 09:23:23;;;;;;;;;4.00;4.00;;;;;31.42;39.48;101156.56;5030961;28;45733;-65
2022/08/23 09:25:53;;;;;;;;;6.00;6.00;;;;;31.51;39.24;101165.09;5021610;28;45526;-63
2022/08/23 09:28:19;;;;;;;;;6.67;5.00;;;;;31.61;39.10;101167.03;5036411;28;46592;-63
2022/08/23 09:30:53;;;;;;;;;5.00;5.00;;;;;31.91;38.55;101158.00;5026904;28;45428;-64
2022/08/23 09:33:24;;;;;;;;;4.67;4.67;;;;;32.02;38.23;101157.69;5038416;28;45407;-63
2022/08/23 09:36:17;;;;;;;;;7.67;7.00;;;;;32.03;38.03;101166.75;5019772;28;45199;-63
2022/08/23 09:38:53;;;;;;;;;6.33;6.33;;;;;31.94;38.07;101166.50;5018595;28;45597;-63
2022/08/23 09:41:23;;;;;;;;;6.00;6.00;;;;;31.90;38.60;101154.41;5018650;28;45367;-64
2022/08/23 09:43:51;;;;;;;;;5.67;4.00;;;;;32.12;38.23;101164.28;5018511;28;45265;-64
2022/08/23 09:46:29;;;;;;;;;4.33;4.00;;;;;32.30;37.48;101141.72;5021544;28;45481;-64
2022/08/23 09:48:57;;;;;;;;;6.00;6.00;;;;;32.55;36.91;101146.31;5037091;28;48485;-63
2022/08/23 09:51:40;;;;;;;;;3.00;3.00;;;;;32.84;36.25;101158.38;5038216;28;45261;-63
2022/08/23 09:54:16;;;;;;;;;2.00;2.00;;;;;33.09;36.33;101115.25;5033898;28;45461;-64
2022/08/23 09:56:49;;;;;;;;;2.00;2.00;;;;;33.50;35.73;101154.41;5018470;28;45274;-63
2022/08/23 09:59:26;;;;;;;;;3.00;3.00;;;;;33.40;35.30;101152.53;5029162;28;46284;-63
2022/08/23 10:01:55;;;;;;;;;4.00;3.00;;;;;33.37;35.40;101139.31;5019385;28;45344;-64
2022/08/23 10:04:36;;;;;;;;;3.00;3.00;;;;;32.86;35.33;101073.53;5019179;28;45303;-64
2022/08/23 10:07:25;;;;;;;;;2.33;2.33;;;;;32.97;35.57;101119.16;5018264;28;45518;-63
2022/08/23 10:09:51;;;;;;;;;7.00;7.00;;;;;32.74;36.24;101144.59;5051258;28;46560;-65
2022/08/23 10:12:16;;;;;;;;;5.00;4.00;;;;;32.54;36.61;101082.19;5038137;28;45478;-63
2022/08/23 10:14:42;;;;;;;;;1.00;1.00;;;;;33.05;35.44;101103.16;5032551;28;45455;-64
2022/08/23 10:17:33;;;;;;;;;2.00;2.00;;;;;33.37;35.54;101136.56;5032785;28;45404;-64
2022/08/23 10:20:20;;;;;;;;;2.67;2.00;;;;;33.65;35.03;101142.44;5037598;28;47570;-64
2022/08/23 10:23:14;;;;;;;;;2.67;1.00;;;;;33.85;34.49;101139.53;5037365;28;45532;-64
2022/08/23 10:25:59;;;;;;;;;2.33;2.33;;;;;33.38;35.24;101072.06;5036997;28;45295;-64
2022/08/23 10:31:24;;;;;;;;;3.00;3.00;;;;;33.61;35.65;101138.59;5034616;28;45555;-63
2022/08/23 10:34:11;;;;;;;;;2.00;2.00;;;;;33.44;35.48;101125.19;5037162;28;45513;-64
2022/08/23 10:37:04;;;;;;;;;3.00;2.00;;;;;33.14;36.05;101128.97;5036443;28;45515;-63
2022/08/23 10:39:30;;;;;;;;;2.00;2.00;;;;;32.95;36.71;101129.66;5021470;28;45540;-63
2022/08/23 10:42:09;;;;;;;;;2.00;2.00;;;;;32.65;37.19;101118.75;5017030;28;45962;-63
2022/08/23 10:44:50;;;;;;;;;2.00;2.00;;;;;32.33;37.74;101119.97;5027858;28;47006;-63
2022/08/23 10:47:29;;;;;;;;;1.33;1.33;;;;;31.67;38.02;101048.56;5035990;28;45313;-65
2022/08/23 10:49:59;;;;;;;;;4.67;4.67;;;;;31.84;38.27;101097.78;5037348;28;45229;-64
2022/08/23 10:52:39;;;;;;;;;2.00;2.00;;;;;31.81;38.52;101122.25;5036966;28;45553;-63
2022/08/23 10:55:16;;;;;;;;;3.00;2.00;;;;;31.15;38.80;101046.88;5052333;28;45682;-64
2022/08/23 10:57:45;;;;;;;;;3.00;3.00;;;;;31.54;39.51;101126.06;5037267;28;45240;-64
2022/08/23 11:00:16;;;;;;;;;2.33;2.33;;;;;31.46;39.51;101119.22;5031136;28;45473;-64
2022/08/23 11:03:06;;;;;;;;;3.67;3.67;;;;;31.45;39.75;101127.72;5016259;28;46055;-69
2022/08/23 11:05:35;;;;;;;;;4.33;4.33;;;;;31.39;39.79;101123.31;5017188;28;45461;-65
2022/08/23 11:08:08;;;;;;;;;3.00;3.00;;;;;31.28;39.60;101130.72;5017340;28;45590;-64
2022/08/23 11:10:47;;;;;;;;;1.00;1.00;;;;;31.17;39.94;101126.31;5015530;28;45297;-64
2022/08/23 11:13:16;;;;;;;;;1.67;1.67;;;;;31.05;40.39;101112.81;5020043;28;46010;-64
2022/08/23 11:16:22;;;;;;;;;2.00;2.00;;;;;30.96;40.48;101119.09;5036643;28;45363;-63
2022/08/23 11:18:49;;;;;;;;;2.33;2.33;;;;;30.93;39.82;101116.88;5045997;28;45329;-63
2022/08/23 11:21:17;;;;;;;;;1.00;1.00;;;;;30.89;40.33;101124.84;5017082;28;45320;-64
2022/08/23 11:23:52;;;;;;;;;23.33;21.33;;;;;30.73;41.05;101110.22;5016728;28;47598;-64
2022/08/23 11:26:21;;;;;;;;;2.00;2.00;;;;;30.64;40.32;101111.03;5032137;28;46312;-64
2022/08/23 11:28:47;;;;;;;;;8.00;8.00;;;;;30.53;40.59;101110.13;5017011;28;45403;-65
2022/08/23 11:31:26;;;;;;;;;12.33;11.33;;;;;30.45;40.30;101103.25;5032389;28;45531;-65
2022/08/23 11:34:03;;;;;;;;;2.00;2.00;;;;;30.40;40.63;101111.44;5016242;28;48679;-71
2022/08/23 11:36:30;;;;;;;;;15.00;15.00;;;;;30.34;41.12;101108.94;5032049;28;45440;-64
2022/08/23 11:38:56;;;;;;;;;7.00;7.00;;;;;30.31;40.77;101104.81;5017110;28;45241;-65
2022/08/23 11:41:30;;;;;;;;;5.00;5.00;;;;;29.73;41.36;101027.13;5015772;28;45198;-64
2022/08/23 11:43:55;;;;;;;;;0.00;0.00;;;;;30.14;40.66;101106.91;5016530;28;46620;-64
2022/08/23 11:46:26;;;;;;;;;1.00;1.00;;;;;30.11;41.13;101107.44;5018086;28;45420;-64